createdAt,value
2023-01-17T00:02:26.440Z,96999.25
2023-01-17T00:05:12.253Z,97002.59
2023-01-17T00:07:57.809Z,96994.69
2023-01-17T00:10:27.830Z,96989.69
2023-01-17T00:12:58.981Z,96994.28
2023-01-17T00:15:28.584Z,96993.03
2023-01-17T00:17:56.758Z,96993.16
2023-01-17T00:20:44.315Z,96991.03
2023-01-17T00:23:34.754Z,96993.03
2023-01-17T00:26:05.542Z,96989.50
2023-01-17T00:28:36.286Z,96990.00
2023-01-17T00:31:04.625Z,96988.22
2023-01-17T00:33:31.599Z,96992.19
2023-01-17T00:36:00.067Z,96986.75
2023-01-17T00:38:28.787Z,96989.38
2023-01-17T00:41:01.965Z,96987.94
2023-01-17T00:43:48.809Z,96991.37
2023-01-17T00:46:36.262Z,96991.06
2023-01-17T00:49:22.641Z,96988.22
2023-01-17T00:52:08.421Z,96999.31
2023-01-17T00:54:54.258Z,97001.44
2023-01-17T00:57:39.692Z,97004.22
2023-01-17T01:00:27.238Z,97003.88
2023-01-17T01:03:14.128Z,97001.88
2023-01-17T01:05:59.994Z,97007.53
2023-01-17T01:08:48.051Z,97009.53
2023-01-17T01:11:36.411Z,97004.91
2023-01-17T01:14:24.717Z,97005.84
2023-01-17T01:17:10.557Z,97014.47
2023-01-17T01:19:57.313Z,97009.00
2023-01-17T01:22:43.164Z,97012.16
2023-01-17T01:25:28.777Z,97016.31
2023-01-17T01:28:22.320Z,97018.94
2023-01-17T01:31:08.027Z,97020.41
2023-01-17T01:33:41.295Z,97019.63
2023-01-17T01:36:10.985Z,97022.78
2023-01-17T01:38:39.362Z,97021.44
2023-01-17T01:41:07.472Z,97026.72
2023-01-17T01:43:43.496Z,97025.41
2023-01-17T01:46:14.345Z,97025.34
2023-01-17T01:48:48.322Z,97033.63
2023-01-17T01:51:21.763Z,97025.41
2023-01-17T01:53:55.260Z,97040.25
2023-01-17T01:56:24.664Z,97040.25
2023-01-17T01:58:53.998Z,97042.22
2023-01-17T02:01:22.255Z,97040.56
2023-01-17T02:03:51.223Z,97046.84
2023-01-17T02:06:31.348Z,97046.56
2023-01-17T02:09:03.495Z,97046.50
2023-01-17T02:11:31.978Z,97045.25
2023-01-17T02:14:00.372Z,97042.59
2023-01-17T02:16:44.433Z,97037.69
2023-01-17T02:19:37.106Z,97044.28
2023-01-17T02:22:23.974Z,97045.94
2023-01-17T02:25:24.341Z,97054.62
2023-01-17T02:28:08.891Z,97062.34
2023-01-17T02:30:42.268Z,97065.47
2023-01-17T02:33:19.013Z,97067.37
2023-01-17T02:35:57.272Z,97067.47
2023-01-17T02:38:33.168Z,97070.59
2023-01-17T02:41:05.317Z,97072.94
2023-01-17T02:43:35.961Z,97086.28
2023-01-17T02:46:06.126Z,97098.88
2023-01-17T02:48:37.525Z,97109.75
2023-01-17T02:51:19.273Z,97103.81
2023-01-17T02:53:59.960Z,97101.66
2023-01-17T02:56:42.207Z,97114.06
2023-01-17T02:59:22.006Z,97105.50
2023-01-17T03:02:05.013Z,97111.56
2023-01-17T03:04:38.932Z,97125.56
2023-01-17T03:07:16.283Z,97129.28
2023-01-17T03:09:46.773Z,97124.16
2023-01-17T03:12:15.463Z,97135.81
2023-01-17T03:14:43.537Z,97141.44
2023-01-17T03:17:13.249Z,97133.56
2023-01-17T03:19:41.635Z,97146.41
2023-01-17T03:22:09.815Z,97140.44
2023-01-17T03:24:38.516Z,97137.53
2023-01-17T03:27:06.801Z,97149.69
2023-01-17T03:29:34.857Z,97153.06
2023-01-17T03:32:02.882Z,97149.06
2023-01-17T03:34:32.581Z,97146.94
2023-01-17T03:37:00.596Z,97152.06
2023-01-17T03:39:28.544Z,97160.34
2023-01-17T03:41:56.771Z,97161.62
2023-01-17T03:44:24.745Z,97158.00
2023-01-17T03:46:52.719Z,97152.38
2023-01-17T03:49:21.157Z,97159.00
2023-01-17T03:51:50.519Z,97164.94
2023-01-17T03:54:18.605Z,97170.75
2023-01-17T03:56:47.085Z,97178.81
2023-01-17T03:59:15.186Z,97184.44
2023-01-17T04:01:43.342Z,97187.41
2023-01-17T04:04:11.583Z,97186.44
2023-01-17T04:06:39.594Z,97190.38
2023-01-17T04:09:09.035Z,97201.78
2023-01-17T04:11:37.321Z,97195.66
2023-01-17T04:14:05.230Z,97201.63
2023-01-17T04:16:33.772Z,97210.84
2023-01-17T04:19:02.229Z,97208.09
2023-01-17T04:21:30.304Z,97212.19
2023-01-17T04:23:58.432Z,97215.88
2023-01-17T04:26:28.133Z,97225.56
2023-01-17T04:28:56.188Z,97226.66
2023-01-17T04:31:24.214Z,97215.41
2023-01-17T04:33:52.433Z,97216.50
2023-01-17T04:36:20.422Z,97219.56
2023-01-17T04:38:48.492Z,97214.53
2023-01-17T04:41:16.706Z,97213.09
2023-01-17T04:43:45.907Z,97218.66
2023-01-17T04:46:13.989Z,97223.41
2023-01-17T04:48:42.231Z,97243.94
2023-01-17T04:51:10.244Z,97227.59
2023-01-17T04:53:38.631Z,97229.38
2023-01-17T04:56:07.488Z,97221.69
2023-01-17T04:58:35.551Z,97228.66
2023-01-17T05:01:05.751Z,97244.09
2023-01-17T05:03:35.415Z,97244.34
2023-01-17T05:06:03.520Z,97248.53
2023-01-17T05:08:31.674Z,97248.56
2023-01-17T05:10:59.948Z,97258.28
2023-01-17T05:13:28.046Z,97254.12
2023-01-17T05:15:58.388Z,97262.44
2023-01-17T05:18:28.210Z,97274.97
2023-01-17T05:21:02.258Z,97281.56
2023-01-17T05:23:30.596Z,97276.06
2023-01-17T05:25:58.568Z,97274.78
2023-01-17T05:28:26.687Z,97277.25
2023-01-17T05:30:54.912Z,97283.62
2023-01-17T05:33:23.642Z,97280.94
2023-01-17T05:35:53.174Z,97292.97
2023-01-17T05:38:22.583Z,97287.06
2023-01-17T05:40:51.284Z,97295.97
2023-01-17T05:43:20.280Z,97295.13
2023-01-17T05:45:50.637Z,97291.31
2023-01-17T05:48:18.710Z,97289.66
2023-01-17T05:50:46.873Z,97284.56
2023-01-17T05:53:18.034Z,97292.91
2023-01-17T05:55:46.326Z,97287.97
2023-01-17T05:58:16.921Z,97297.09
2023-01-17T06:00:45.368Z,97304.16
2023-01-17T06:03:13.765Z,97296.22
2023-01-17T06:05:42.181Z,97303.06
2023-01-17T06:08:11.082Z,97305.41
2023-01-17T06:10:41.011Z,97319.50
2023-01-17T06:13:12.244Z,97323.16
2023-01-17T06:15:41.181Z,97333.28
2023-01-17T06:18:11.287Z,97339.78
2023-01-17T06:20:40.887Z,97343.09
2023-01-17T06:23:11.742Z,97352.72
2023-01-17T06:25:44.042Z,97358.53
2023-01-17T06:28:14.450Z,97361.50
2023-01-17T06:30:43.903Z,97368.19
2023-01-17T06:33:12.865Z,97373.09
2023-01-17T06:35:44.226Z,97386.50
2023-01-17T06:38:12.380Z,97384.66
2023-01-17T06:40:41.952Z,97383.28
2023-01-17T06:43:10.116Z,97382.72
2023-01-17T06:45:38.520Z,97401.13
2023-01-17T06:48:07.239Z,97395.13
2023-01-17T06:50:35.603Z,97401.56
2023-01-17T06:53:06.293Z,97410.69
2023-01-17T06:55:35.884Z,97412.59
2023-01-17T06:58:05.596Z,97403.78
2023-01-17T07:00:35.181Z,97417.31
2023-01-17T07:03:03.606Z,97413.19
2023-01-17T07:05:32.872Z,97423.16
2023-01-17T07:08:00.875Z,97422.25
2023-01-17T07:10:29.279Z,97425.97
2023-01-17T07:13:00.648Z,97422.47
2023-01-17T07:15:30.419Z,97421.78
2023-01-17T07:18:01.423Z,97434.03
2023-01-17T07:20:29.712Z,97435.38
2023-01-17T07:22:57.690Z,97435.13
2023-01-17T07:25:27.759Z,97434.81
2023-01-17T07:27:57.568Z,97445.38
2023-01-17T07:30:27.047Z,97452.88
2023-01-17T07:32:56.997Z,97468.47
2023-01-17T07:35:27.151Z,97477.28
2023-01-17T07:37:56.092Z,97471.66
2023-01-17T07:40:25.112Z,97471.56
2023-01-17T07:42:53.097Z,97466.75
2023-01-17T07:45:21.943Z,97472.88
2023-01-17T07:47:50.272Z,97475.72
2023-01-17T07:50:19.828Z,97470.16
2023-01-17T07:52:50.228Z,97485.16
2023-01-17T07:55:18.497Z,97480.72
2023-01-17T07:57:50.073Z,97481.00
2023-01-17T08:00:19.542Z,97482.22
2023-01-17T08:02:48.048Z,97490.34
2023-01-17T08:05:16.419Z,97484.38
2023-01-17T08:07:45.904Z,97489.22
2023-01-17T08:10:17.970Z,97493.19
2023-01-17T08:12:46.975Z,97489.97
2023-01-17T08:15:16.394Z,97501.50
2023-01-17T08:17:47.031Z,97500.06
2023-01-17T08:20:16.107Z,97505.34
2023-01-17T08:22:46.196Z,97507.09
2023-01-17T08:25:14.505Z,97509.13
2023-01-17T08:27:42.793Z,97512.84
2023-01-17T08:30:11.996Z,97512.00
2023-01-17T08:32:40.875Z,97515.84
2023-01-17T08:35:10.492Z,97525.25
2023-01-17T08:37:39.167Z,97533.59
2023-01-17T08:40:11.093Z,97537.72
2023-01-17T08:42:40.995Z,97531.66
2023-01-17T08:45:11.231Z,97541.97
2023-01-17T08:47:39.816Z,97545.66
2023-01-17T08:50:08.587Z,97558.47
2023-01-17T08:52:37.070Z,97552.69
2023-01-17T08:55:06.529Z,97573.03
2023-01-17T08:57:35.909Z,97577.22
2023-01-17T09:00:04.731Z,97579.59
2023-01-17T09:02:33.225Z,97586.41
2023-01-17T09:05:01.516Z,97592.66
2023-01-17T09:07:29.482Z,97598.56
2023-01-17T09:09:57.851Z,97606.94
2023-01-17T09:12:25.982Z,97613.84
2023-01-17T09:14:55.303Z,97620.06
2023-01-17T09:17:23.565Z,97628.78
2023-01-17T09:19:52.487Z,97623.13
2023-01-17T09:22:20.460Z,97639.09
2023-01-17T09:24:48.865Z,97641.88
2023-01-17T09:27:16.838Z,97641.31
2023-01-17T09:29:45.186Z,97642.28
2023-01-17T09:32:17.085Z,97653.37
2023-01-17T09:34:45.343Z,97657.16
2023-01-17T09:37:13.579Z,97661.94
2023-01-17T09:39:41.474Z,97662.53
2023-01-17T09:42:21.664Z,97664.75
2023-01-17T09:44:52.472Z,97661.94
2023-01-17T09:47:32.383Z,97661.41
2023-01-17T09:50:28.558Z,97658.03
2023-01-17T09:53:01.566Z,97663.53
2023-01-17T09:55:35.371Z,97663.38
2023-01-17T09:58:09.465Z,97665.91
2023-01-17T10:00:47.694Z,97656.28
2023-01-17T10:03:32.561Z,97656.59
2023-01-17T10:06:31.944Z,97655.72
2023-01-17T10:09:17.272Z,97659.53
2023-01-17T10:11:56.550Z,97660.44
2023-01-17T10:14:41.679Z,97658.53
2023-01-17T10:17:16.128Z,97664.06
2023-01-17T10:19:57.262Z,97674.81
2023-01-17T10:22:43.404Z,97672.34
2023-01-17T10:25:24.345Z,97681.31
2023-01-17T10:27:58.753Z,97686.84
2023-01-17T10:30:33.531Z,97688.78
2023-01-17T10:33:05.148Z,97682.59
2023-01-17T10:35:37.958Z,97679.91
2023-01-17T10:38:12.956Z,97680.12
2023-01-17T10:40:45.778Z,97681.63
2023-01-17T10:43:19.362Z,97672.53
2023-01-17T10:45:53.857Z,97687.69
2023-01-17T10:48:35.016Z,97671.09
2023-01-17T10:51:21.903Z,97675.59
2023-01-17T10:54:04.460Z,97674.94
2023-01-17T10:56:34.657Z,97679.78
2023-01-17T10:59:17.291Z,97677.50
2023-01-17T11:01:46.209Z,97682.47
2023-01-17T11:04:19.829Z,97689.75
2023-01-17T11:07:14.374Z,97691.06
2023-01-17T11:09:43.888Z,97681.34
2023-01-17T11:12:25.683Z,97686.28
2023-01-17T11:15:00.933Z,97682.16
2023-01-17T11:17:30.445Z,97689.78
2023-01-17T11:20:19.944Z,97685.44
2023-01-17T11:23:05.594Z,97681.12
2023-01-17T11:25:35.055Z,97677.19
2023-01-17T11:28:06.092Z,97685.75
2023-01-17T11:30:34.788Z,97686.03
2023-01-17T11:33:06.202Z,97689.25
2023-01-17T11:35:36.796Z,97685.44
2023-01-17T11:38:13.018Z,97684.13
2023-01-17T11:40:42.983Z,97677.59
2023-01-17T11:43:24.074Z,97682.13
2023-01-17T11:46:04.317Z,97682.09
2023-01-17T11:48:37.845Z,97697.22
2023-01-17T11:51:18.595Z,97679.16
2023-01-17T11:53:49.134Z,97681.12
2023-01-17T11:56:27.437Z,97676.81
2023-01-17T11:59:14.823Z,97676.16
2023-01-17T12:01:48.331Z,97679.31
2023-01-17T12:04:25.157Z,97673.31
2023-01-17T12:07:09.208Z,97672.06
2023-01-17T12:09:47.560Z,97677.31
2023-01-17T12:12:43.055Z,97679.84
2023-01-17T12:15:30.911Z,97676.13
2023-01-17T12:18:18.987Z,97677.25
2023-01-17T12:20:59.004Z,97682.09
2023-01-17T12:23:41.890Z,97675.47
2023-01-17T12:26:24.704Z,97680.44
2023-01-17T12:29:08.502Z,97682.09
2023-01-17T12:31:44.731Z,97674.78
2023-01-17T12:34:24.644Z,97692.69
2023-01-17T12:36:57.146Z,97693.13
2023-01-17T12:39:31.389Z,97703.66
2023-01-17T12:42:05.781Z,97698.78
2023-01-17T12:44:51.619Z,97698.63
2023-01-17T12:47:21.847Z,97704.66
2023-01-17T12:49:58.334Z,97702.25
2023-01-17T12:52:39.694Z,97716.69
2023-01-17T12:55:15.482Z,97714.19
2023-01-17T12:57:48.796Z,97720.00
2023-01-17T13:00:22.958Z,97717.62
2023-01-17T13:02:58.165Z,97713.59
2023-01-17T13:05:31.754Z,97724.38
2023-01-17T13:08:07.620Z,97722.69
2023-01-17T13:10:40.672Z,97720.44
2023-01-17T13:13:22.487Z,97732.66
2023-01-17T13:15:54.205Z,97730.69
2023-01-17T13:18:26.968Z,97740.25
2023-01-17T13:21:21.189Z,97740.78
2023-01-17T13:24:05.982Z,97743.38
2023-01-17T13:26:45.989Z,97743.97
2023-01-17T13:29:25.930Z,97745.69
2023-01-17T13:32:07.131Z,97754.31
2023-01-17T13:34:58.185Z,97750.81
2023-01-17T13:38:03.030Z,97753.56
2023-01-17T13:40:40.526Z,97757.38
2023-01-17T13:43:15.469Z,97760.37
2023-01-17T13:45:53.897Z,97761.91
2023-01-17T13:48:32.309Z,97766.78
2023-01-17T13:51:02.284Z,97769.25
2023-01-17T13:53:47.665Z,97771.25
2023-01-17T13:56:25.053Z,97778.25
2023-01-17T13:58:58.784Z,97770.91
2023-01-17T14:01:54.376Z,97769.50
2023-01-17T14:04:23.878Z,97763.19
2023-01-17T14:06:59.487Z,97774.63
2023-01-17T14:09:37.943Z,97766.66
2023-01-17T14:12:08.076Z,97766.91
2023-01-17T14:14:49.797Z,97766.19
2023-01-17T14:17:47.649Z,97775.75
2023-01-17T14:20:41.299Z,97779.75
2023-01-17T14:23:34.339Z,97782.41
2023-01-17T14:26:19.446Z,97784.38
2023-01-17T14:28:47.601Z,97792.31
2023-01-17T14:31:17.929Z,97794.16
2023-01-17T14:33:47.701Z,97793.31
2023-01-17T14:36:25.531Z,97796.13
2023-01-17T14:38:53.486Z,97791.34
2023-01-17T14:41:24.903Z,97792.16
2023-01-17T14:43:53.834Z,97798.63
2023-01-17T14:46:26.534Z,97801.94
2023-01-17T14:49:02.784Z,97803.66
2023-01-17T14:51:35.109Z,97806.28
2023-01-17T14:54:06.217Z,97814.22
2023-01-17T14:56:35.236Z,97809.84
2023-01-17T14:59:12.913Z,97807.59
2023-01-17T15:01:41.999Z,97803.66
2023-01-17T15:04:24.854Z,97807.66
2023-01-17T15:06:53.688Z,97802.47
2023-01-17T15:09:24.839Z,97809.22
2023-01-17T15:11:55.218Z,97809.09
2023-01-17T15:14:27.241Z,97813.69
2023-01-17T15:16:56.147Z,97813.84
2023-01-17T15:19:25.444Z,97813.75
2023-01-17T15:21:55.156Z,97812.25
2023-01-17T15:24:27.613Z,97808.28
2023-01-17T15:26:55.714Z,97816.50
2023-01-17T15:29:26.782Z,97801.91
2023-01-17T15:31:58.270Z,97811.81
2023-01-17T15:34:30.699Z,97814.09
2023-01-17T15:37:01.124Z,97808.44
2023-01-17T15:39:32.272Z,97808.34
2023-01-17T15:42:03.165Z,97805.75
2023-01-17T15:44:50.270Z,97811.53
2023-01-17T15:47:28.393Z,97811.13
2023-01-17T15:49:58.729Z,97822.28
2023-01-17T15:52:27.063Z,97822.22
2023-01-17T15:54:59.001Z,97819.31
2023-01-17T15:57:29.548Z,97813.09
2023-01-17T16:00:01.853Z,97818.03
2023-01-17T16:02:36.724Z,97834.41
2023-01-17T16:05:41.886Z,97835.97
2023-01-17T16:08:31.568Z,97826.84
2023-01-17T16:11:02.875Z,97835.63
2023-01-17T16:13:32.720Z,97822.75
2023-01-17T16:16:12.034Z,97827.91
2023-01-17T16:18:40.362Z,97826.13
2023-01-17T16:21:18.640Z,97840.03
2023-01-17T16:23:47.102Z,97837.13
2023-01-17T16:26:16.570Z,97827.84
2023-01-17T16:28:44.897Z,97840.34
2023-01-17T16:31:15.856Z,97835.34
2023-01-17T16:33:45.945Z,97835.09
2023-01-17T16:36:17.208Z,97834.66
2023-01-17T16:38:46.722Z,97837.03
2023-01-17T16:41:14.789Z,97834.56
2023-01-17T16:43:43.190Z,97838.28
2023-01-17T16:46:13.005Z,97846.50
2023-01-17T16:48:41.076Z,97840.09
2023-01-17T16:51:09.521Z,97842.34
2023-01-17T16:53:39.083Z,97836.63
2023-01-17T16:56:11.898Z,97834.28
2023-01-17T16:58:40.266Z,97837.59
2023-01-17T17:01:15.444Z,97832.75
2023-01-17T17:03:44.698Z,97833.44
2023-01-17T17:06:13.362Z,97836.19
2023-01-17T17:08:43.142Z,97837.41
2023-01-17T17:11:14.637Z,97838.66
2023-01-17T17:13:44.260Z,97853.34
2023-01-17T17:16:15.880Z,97849.47
2023-01-17T17:18:44.824Z,97837.78
2023-01-17T17:21:14.033Z,97844.66
2023-01-17T17:23:43.343Z,97849.66
2023-01-17T17:26:11.315Z,97843.81
2023-01-17T17:28:39.484Z,97835.34
2023-01-17T17:31:10.457Z,97840.44
2023-01-17T17:33:38.846Z,97837.63
2023-01-17T17:36:10.757Z,97845.94
2023-01-17T17:38:51.034Z,97850.75
2023-01-17T17:41:22.959Z,97852.63
2023-01-17T17:43:52.270Z,97844.13
2023-01-17T17:46:21.654Z,97843.81
2023-01-17T17:48:50.389Z,97835.47
2023-01-17T17:51:26.655Z,97840.97
2023-01-17T17:53:56.789Z,97842.91
2023-01-17T17:56:26.147Z,97838.28
2023-01-17T17:58:54.598Z,97835.34
2023-01-17T18:01:24.239Z,97840.28
2023-01-17T18:03:53.589Z,97826.66
2023-01-17T18:06:22.136Z,97828.72
2023-01-17T18:08:52.120Z,97833.56
2023-01-17T18:11:22.756Z,97837.50
2023-01-17T18:13:53.377Z,97836.34
2023-01-17T18:16:25.738Z,97840.91
2023-01-17T18:18:55.242Z,97841.66
2023-01-17T18:21:25.505Z,97835.69
2023-01-17T18:23:56.651Z,97841.91
2023-01-17T18:26:26.753Z,97837.75
2023-01-17T18:28:57.730Z,97849.31
2023-01-17T18:31:27.582Z,97844.06
2023-01-17T18:33:56.927Z,97841.69
2023-01-17T18:36:26.233Z,97847.91
2023-01-17T18:38:54.398Z,97852.34
2023-01-17T18:41:25.266Z,97854.97
2023-01-17T18:43:56.025Z,97865.59
2023-01-17T18:46:28.110Z,97868.72
2023-01-17T18:48:57.849Z,97876.63
2023-01-17T18:51:26.238Z,97879.28
2023-01-17T18:53:54.866Z,97877.25
2023-01-17T18:56:24.055Z,97877.62
2023-01-17T18:58:52.252Z,97887.44
2023-01-17T19:01:22.174Z,97888.59
2023-01-17T19:03:54.071Z,97885.16
2023-01-17T19:06:24.249Z,97885.28
2023-01-17T19:08:52.819Z,97883.59
2023-01-17T19:11:22.051Z,97881.94
2023-01-17T19:13:50.967Z,97887.41
2023-01-17T19:16:24.340Z,97890.28
2023-01-17T19:18:53.885Z,97890.41
2023-01-17T19:21:24.240Z,97891.63
2023-01-17T19:23:52.490Z,97900.53
2023-01-17T19:26:22.892Z,97906.75
2023-01-17T19:28:51.851Z,97896.75
2023-01-17T19:31:22.103Z,97898.16
2023-01-17T19:33:52.426Z,97900.06
2023-01-17T19:36:23.634Z,97901.12
2023-01-17T19:39:04.105Z,97894.03
2023-01-17T19:41:34.563Z,97892.38
2023-01-17T19:44:05.938Z,97897.87
2023-01-17T19:46:34.611Z,97898.94
2023-01-17T19:49:03.656Z,97904.41
2023-01-17T19:51:32.882Z,97901.91
2023-01-17T19:54:01.853Z,97906.44
2023-01-17T19:56:30.881Z,97912.63
2023-01-17T19:59:01.353Z,97920.63
2023-01-17T20:01:32.777Z,97930.16
2023-01-17T20:04:02.506Z,97926.72
2023-01-17T20:06:34.250Z,97927.53
2023-01-17T20:09:02.867Z,97927.78
2023-01-17T20:11:30.927Z,97930.50
2023-01-17T20:14:00.110Z,97938.50
2023-01-17T20:16:30.725Z,97936.81
2023-01-17T20:18:59.467Z,97930.75
2023-01-17T20:21:29.158Z,97941.22
2023-01-17T20:24:00.557Z,97943.03
2023-01-17T20:26:34.624Z,97947.31
2023-01-17T20:29:06.879Z,97941.22
2023-01-17T20:31:38.109Z,97948.97
2023-01-17T20:34:08.137Z,97943.13
2023-01-17T20:36:36.943Z,97950.28
2023-01-17T20:39:08.075Z,97958.16
2023-01-17T20:41:38.754Z,97954.91
2023-01-17T20:44:08.969Z,97957.66
2023-01-17T20:46:41.149Z,97958.59
2023-01-17T20:49:14.739Z,97959.16
2023-01-17T20:51:44.305Z,97961.91
2023-01-17T20:54:15.615Z,97969.16
2023-01-17T20:56:44.403Z,97977.62
2023-01-17T20:59:14.713Z,97975.00
2023-01-17T21:01:44.266Z,97984.06
2023-01-17T21:04:13.122Z,97978.00
2023-01-17T21:06:42.717Z,97987.53
2023-01-17T21:09:14.968Z,98001.47
2023-01-17T21:11:43.370Z,97996.94
2023-01-17T21:14:11.335Z,97995.87
2023-01-17T21:16:39.447Z,97998.50
2023-01-17T21:19:11.898Z,98004.69
2023-01-17T21:21:40.138Z,97999.69
2023-01-17T21:24:08.623Z,97999.44
2023-01-17T21:26:39.958Z,97997.47
2023-01-17T21:29:09.659Z,97991.47
2023-01-17T21:31:40.225Z,97994.00
2023-01-17T21:34:10.421Z,97992.22
2023-01-17T21:36:40.772Z,97996.13
2023-01-17T21:39:12.645Z,97999.09
2023-01-17T21:41:42.841Z,97996.91
2023-01-17T21:44:14.741Z,97995.63
2023-01-17T21:46:43.072Z,98000.75
2023-01-17T21:49:12.092Z,98007.44
2023-01-17T21:52:00.478Z,98010.06
2023-01-17T21:54:44.662Z,98017.09
2023-01-17T21:57:32.483Z,98013.50
2023-01-17T22:00:00.897Z,98012.91
2023-01-17T22:02:28.903Z,98011.00
2023-01-17T22:04:57.382Z,98019.81
2023-01-17T22:07:27.005Z,98020.91
2023-01-17T22:09:56.382Z,98017.75
2023-01-17T22:12:26.005Z,98024.06
2023-01-17T22:14:54.458Z,98023.34
2023-01-17T22:17:22.417Z,98023.47
2023-01-17T22:19:50.710Z,98017.47
2023-01-17T22:22:18.746Z,98009.84
2023-01-17T22:24:46.858Z,98001.63
2023-01-17T22:27:15.151Z,98008.34
2023-01-17T22:29:44.549Z,98014.28
2023-01-17T22:32:12.549Z,98007.88
2023-01-17T22:34:40.723Z,97997.19
2023-01-17T22:37:10.121Z,98000.28
2023-01-17T22:39:38.635Z,98006.16
2023-01-17T22:42:07.263Z,97996.37
2023-01-17T22:44:35.260Z,97990.06
2023-01-17T22:47:04.679Z,97996.75
2023-01-17T22:49:32.817Z,97980.81
2023-01-17T22:52:00.823Z,97983.31
2023-01-17T22:54:28.790Z,97972.81
2023-01-17T22:56:57.071Z,97964.13
2023-01-17T22:59:25.026Z,97957.22
2023-01-17T23:01:54.821Z,97959.72
2023-01-17T23:04:24.399Z,97957.31
2023-01-17T23:06:53.520Z,97960.78
2023-01-17T23:09:21.564Z,97955.53
2023-01-17T23:11:52.863Z,97957.22
2023-01-17T23:14:24.474Z,97950.87
2023-01-17T23:17:11.797Z,97946.47
2023-01-17T23:19:43.246Z,97948.25
2023-01-17T23:22:22.663Z,97949.94
2023-01-17T23:24:52.573Z,97948.16
2023-01-17T23:27:40.851Z,97943.72
2023-01-17T23:30:12.181Z,97936.09
2023-01-17T23:32:43.909Z,97938.13
2023-01-17T23:35:13.689Z,97930.25
2023-01-17T23:37:59.547Z,97926.81
2023-01-17T23:40:27.775Z,97917.34
2023-01-17T23:43:13.613Z,97917.34
2023-01-17T23:45:41.700Z,97911.28
2023-01-17T23:48:10.753Z,97919.03
2023-01-17T23:50:42.481Z,97922.59
2023-01-17T23:53:11.922Z,97915.81
2023-01-17T23:55:43.442Z,97919.25
2023-01-17T23:58:12.703Z,97917.59
